createdAt,value
2018-12-21T00:03:24.362Z,7.17
2018-12-21T00:07:32.735Z,8.10
2018-12-21T00:11:41.094Z,10.37
2018-12-21T00:15:49.422Z,9.50
2018-12-21T00:19:57.687Z,8.40
2018-12-21T00:24:05.970Z,17.07
2018-12-21T00:28:14.274Z,11.40
2018-12-21T00:32:27.950Z,10.17
2018-12-21T00:36:41.707Z,22.17
2018-12-21T00:40:55.415Z,5.53
2018-12-21T00:45:06.993Z,10.58
2018-12-21T00:49:15.258Z,8.93
2018-12-21T00:53:23.545Z,6.93
2018-12-21T00:57:31.850Z,7.07
2018-12-21T01:01:40.175Z,9.40
2018-12-21T01:05:48.465Z,10.90
2018-12-21T01:09:56.753Z,13.80
2018-12-21T01:14:05.058Z,7.63
2018-12-21T01:18:13.374Z,11.20
2018-12-21T01:22:21.626Z,13.33
2018-12-21T01:26:29.958Z,15.37
2018-12-21T01:30:38.242Z,4.87
2018-12-21T01:34:46.639Z,5.80
2018-12-21T01:38:54.946Z,10.87
2018-12-21T01:43:03.223Z,5.73
2018-12-21T01:47:11.542Z,10.30
2018-12-21T01:51:19.829Z,9.10
2018-12-21T01:55:28.133Z,11.80
2018-12-21T01:59:36.438Z,6.70
2018-12-21T02:03:44.730Z,8.73
2018-12-21T02:07:53.142Z,13.57
2018-12-21T02:12:01.309Z,8.93
2018-12-21T02:16:09.559Z,10.53
2018-12-21T02:20:17.887Z,8.73
2018-12-21T02:24:26.142Z,12.17
2018-12-21T02:28:34.440Z,9.47
2018-12-21T02:32:42.695Z,8.10
2018-12-21T02:36:50.982Z,7.63
2018-12-21T02:40:59.229Z,7.90
2018-12-21T02:45:08.297Z,8.80
2018-12-21T02:49:16.660Z,9.70
2018-12-21T02:53:24.980Z,7.83
2018-12-21T02:57:33.262Z,5.47
2018-12-21T03:01:41.626Z,6.93
2018-12-21T03:05:49.657Z,9.83
2018-12-21T03:09:58.689Z,5.00
2018-12-21T03:14:06.991Z,10.63
2018-12-21T03:18:15.359Z,10.33
2018-12-21T03:22:23.666Z,7.90
2018-12-21T03:26:31.986Z,6.83
2018-12-21T03:30:40.303Z,4.30
2018-12-21T03:34:48.603Z,7.17
2018-12-21T03:38:56.912Z,5.77
2018-12-21T03:43:05.206Z,10.43
2018-12-21T03:47:13.558Z,6.57
2018-12-21T03:51:21.870Z,6.60
2018-12-21T03:55:30.139Z,9.20
2018-12-21T03:59:38.430Z,6.13
2018-12-21T04:03:46.702Z,4.33
2018-12-21T04:07:55.021Z,6.07
2018-12-21T04:12:03.310Z,8.57
2018-12-21T04:16:11.606Z,8.40
2018-12-21T04:20:19.979Z,7.77
2018-12-21T04:24:28.261Z,8.17
2018-12-21T04:28:36.609Z,7.73
2018-12-21T04:32:44.929Z,5.40
2018-12-21T04:36:53.221Z,9.20
2018-12-21T04:41:01.519Z,5.07
2018-12-21T04:45:09.794Z,9.07
2018-12-21T04:49:18.143Z,8.70
2018-12-21T04:53:26.472Z,13.13
2018-12-21T04:57:34.763Z,4.83
2018-12-21T05:01:43.054Z,11.73
2018-12-21T05:05:51.346Z,8.83
2018-12-21T05:09:59.692Z,4.73
2018-12-21T05:14:08.169Z,5.23
2018-12-21T05:18:16.321Z,11.53
2018-12-21T05:22:24.633Z,6.90
2018-12-21T05:26:32.964Z,5.13
2018-12-21T05:30:41.258Z,7.70
2018-12-21T05:34:49.978Z,9.50
2018-12-21T05:38:57.886Z,12.63
2018-12-21T05:43:06.235Z,8.30
2018-12-21T05:47:14.631Z,5.30
2018-12-21T05:51:22.986Z,4.67
2018-12-21T05:55:31.246Z,5.73
2018-12-21T05:59:39.575Z,5.57
2018-12-21T06:03:47.848Z,3.67
2018-12-21T06:07:56.204Z,4.60
2018-12-21T06:12:04.530Z,7.57
2018-12-21T06:16:12.873Z,6.13
2018-12-21T06:20:21.208Z,5.77
2018-12-21T06:24:29.461Z,7.30
2018-12-21T06:28:37.779Z,7.70
2018-12-21T06:32:46.068Z,5.30
2018-12-21T06:36:54.358Z,5.03
2018-12-21T06:41:02.601Z,5.43
2018-12-21T06:45:10.889Z,9.10
2018-12-21T06:49:19.223Z,8.47
2018-12-21T06:53:27.537Z,8.00
2018-12-21T06:57:35.911Z,7.90
2018-12-21T07:01:44.242Z,8.53
2018-12-21T07:05:52.554Z,7.70
2018-12-21T07:10:00.845Z,6.07
2018-12-21T07:14:09.150Z,5.73
2018-12-21T07:18:17.402Z,3.83
2018-12-21T07:22:25.430Z,5.23
2018-12-21T07:26:33.699Z,4.60
2018-12-21T07:30:42.066Z,8.60
2018-12-21T07:34:50.318Z,5.77
2018-12-21T07:38:58.578Z,4.43
2018-12-21T07:43:06.877Z,3.60
2018-12-21T07:47:15.187Z,5.53
2018-12-21T07:51:23.518Z,5.23
2018-12-21T07:55:31.954Z,3.50
2018-12-21T07:59:40.399Z,4.60
2018-12-21T08:03:48.747Z,3.67
2018-12-21T08:07:57.109Z,6.12
2018-12-21T08:12:05.394Z,5.20
2018-12-21T08:16:17.644Z,3.37
2018-12-21T08:20:25.951Z,3.40
2018-12-21T08:24:34.331Z,6.63
2018-12-21T08:28:42.403Z,4.67
2018-12-21T08:32:50.768Z,6.10
2018-12-21T08:36:59.222Z,6.87
2018-12-21T08:41:07.642Z,5.20
2018-12-21T08:45:16.058Z,6.03
2018-12-21T08:49:24.455Z,5.43
2018-12-21T08:53:32.782Z,4.90
2018-12-21T08:57:41.282Z,4.15
2018-12-21T09:01:49.670Z,7.13
2018-12-21T09:05:58.084Z,4.47
2018-12-21T09:10:08.791Z,6.73
2018-12-21T09:14:17.135Z,4.73
2018-12-21T09:18:25.499Z,5.23
2018-12-21T09:22:33.807Z,4.23
2018-12-21T09:26:42.184Z,5.33
2018-12-21T09:30:50.642Z,4.30
2018-12-21T09:34:59.086Z,5.60
2018-12-21T09:39:07.925Z,6.93
2018-12-21T09:43:16.312Z,5.10
2018-12-21T09:47:24.795Z,7.13
2018-12-21T09:51:33.154Z,5.47
2018-12-21T09:55:41.539Z,5.80
2018-12-21T09:59:49.929Z,8.10
2018-12-21T10:03:58.282Z,4.87
2018-12-21T10:08:06.687Z,6.23
2018-12-21T10:12:15.043Z,6.47
2018-12-21T10:16:23.395Z,6.30
2018-12-21T10:20:31.862Z,3.30
2018-12-21T10:24:40.187Z,3.83
2018-12-21T10:28:48.502Z,4.33
2018-12-21T10:32:56.871Z,3.43
2018-12-21T10:37:05.240Z,3.37
2018-12-21T10:41:13.726Z,2.50
2018-12-21T10:45:22.163Z,3.13
2018-12-21T10:49:32.065Z,2.77
2018-12-21T10:53:39.428Z,2.60
2018-12-21T10:57:47.737Z,2.70
2018-12-21T11:01:56.047Z,2.77
2018-12-21T11:06:04.377Z,2.70
2018-12-21T11:10:12.796Z,2.80
2018-12-21T11:14:21.138Z,2.73
2018-12-21T11:18:29.417Z,3.20
2018-12-21T11:22:37.719Z,2.93
2018-12-21T11:26:46.000Z,2.98
2018-12-21T11:30:54.367Z,3.03
2018-12-21T11:35:02.618Z,2.33
2018-12-21T11:39:10.932Z,2.40
2018-12-21T11:43:19.249Z,4.17
2018-12-21T11:47:27.592Z,2.37
2018-12-21T11:51:35.886Z,3.03
2018-12-21T11:55:44.202Z,3.73
2018-12-21T11:59:52.737Z,2.50
2018-12-21T12:04:01.118Z,2.60
2018-12-21T12:08:09.461Z,3.93
2018-12-21T12:12:17.786Z,2.53
2018-12-21T12:16:26.018Z,2.63
2018-12-21T12:20:34.043Z,2.73
2018-12-21T12:24:42.366Z,3.10
2018-12-21T12:28:50.614Z,1.93
2018-12-21T12:32:58.950Z,3.07
2018-12-21T12:37:07.354Z,2.40
2018-12-21T12:41:15.670Z,2.73
2018-12-21T12:45:24.000Z,2.30
2018-12-21T12:49:32.249Z,2.53
2018-12-21T12:53:40.639Z,2.63
2018-12-21T12:57:49.009Z,2.63
2018-12-21T13:01:58.470Z,3.03
2018-12-21T13:06:05.643Z,2.30
2018-12-21T13:10:13.889Z,2.73
2018-12-21T13:14:22.155Z,2.00
2018-12-21T13:18:30.444Z,2.60
2018-12-21T13:22:38.476Z,2.60
2018-12-21T13:26:46.782Z,2.20
2018-12-21T13:30:55.095Z,2.40
2018-12-21T13:35:03.240Z,2.50
2018-12-21T13:39:11.574Z,3.40
2018-12-21T13:43:19.885Z,2.87
2018-12-21T13:47:28.140Z,2.90
2018-12-21T13:51:36.434Z,4.40
2018-12-21T13:55:44.701Z,13.50
2018-12-21T13:59:52.973Z,5.57
2018-12-21T14:04:01.232Z,4.63
2018-12-21T14:08:09.554Z,8.77
2018-12-21T14:12:17.873Z,9.90
2018-12-21T14:16:26.169Z,7.87
2018-12-21T14:20:34.501Z,8.75
2018-12-21T14:24:42.718Z,5.47
2018-12-21T14:28:50.990Z,5.13
2018-12-21T14:32:59.341Z,7.73
2018-12-21T14:37:07.632Z,4.07
2018-12-21T14:41:15.923Z,11.50
2018-12-21T14:45:24.170Z,15.80
2018-12-21T14:49:45.906Z,9.87
2018-12-21T14:53:54.169Z,13.00
2018-12-21T14:58:02.455Z,14.47
2018-12-21T15:02:10.734Z,19.97
2018-12-21T15:06:19.049Z,11.03
2018-12-21T15:10:27.406Z,15.90
2018-12-21T15:14:35.711Z,18.20
2018-12-21T15:18:44.047Z,15.73
2018-12-21T15:22:52.279Z,17.17
2018-12-21T15:27:00.566Z,11.40
2018-12-21T15:31:08.802Z,13.70
2018-12-21T15:35:17.069Z,16.33
2018-12-21T15:39:25.409Z,23.32
2018-12-21T15:43:33.671Z,22.57
2018-12-21T15:47:41.991Z,23.60
2018-12-21T15:51:50.348Z,22.77
2018-12-21T15:55:58.628Z,27.17
2018-12-21T16:00:10.257Z,15.63
2018-12-21T16:04:18.509Z,16.27
2018-12-21T16:08:26.788Z,24.63
2018-12-21T16:12:35.055Z,22.23
2018-12-21T16:16:43.338Z,15.10
2018-12-21T16:20:51.613Z,21.43
2018-12-21T16:24:59.964Z,25.60
2018-12-21T16:29:08.150Z,25.60
2018-12-21T16:33:16.478Z,11.13
2018-12-21T16:37:24.736Z,22.70
2018-12-21T16:41:33.118Z,19.87
2018-12-21T16:45:41.361Z,16.60
2018-12-21T16:49:49.664Z,9.70
2018-12-21T16:53:58.012Z,13.10
2018-12-21T16:58:06.280Z,13.18
2018-12-21T17:02:14.581Z,14.40
2018-12-21T17:06:22.870Z,14.20
2018-12-21T17:10:31.162Z,13.67
2018-12-21T17:14:39.466Z,17.92
2018-12-21T17:18:47.758Z,17.07
2018-12-21T17:22:56.046Z,15.83
2018-12-21T17:27:04.328Z,11.43
2018-12-21T17:31:12.603Z,20.27
2018-12-21T17:35:20.957Z,14.43
2018-12-21T17:39:29.226Z,15.70
2018-12-21T17:43:37.550Z,14.47
2018-12-21T17:47:45.782Z,21.47
2018-12-21T17:52:01.188Z,14.70
2018-12-21T17:56:02.415Z,23.27
2018-12-21T18:00:15.910Z,16.90
2018-12-21T18:04:27.797Z,14.77
2018-12-21T18:08:36.118Z,21.03
2018-12-21T18:12:44.384Z,9.00
2018-12-21T18:16:52.694Z,18.57
2018-12-21T18:21:01.158Z,18.10
2018-12-21T18:25:16.644Z,19.40
2018-12-21T18:29:25.232Z,18.57
2018-12-21T18:33:33.563Z,27.02
2018-12-21T18:37:53.868Z,17.53
2018-12-21T18:42:02.049Z,31.03
2018-12-21T18:46:10.346Z,23.47
2018-12-21T18:50:18.628Z,24.20
2018-12-21T18:54:27.347Z,12.80
2018-12-21T18:58:35.413Z,22.00
2018-12-21T19:02:43.684Z,18.60
2018-12-21T19:06:51.954Z,17.20
2018-12-21T19:11:00.271Z,23.70
2018-12-21T19:15:10.482Z,28.02
2018-12-21T19:19:18.808Z,16.33
2018-12-21T19:23:27.110Z,18.60
2018-12-21T19:27:35.397Z,16.83
2018-12-21T19:31:43.702Z,35.13
2018-12-21T19:35:51.966Z,17.20
2018-12-21T19:40:00.282Z,17.57
2018-12-21T19:44:08.581Z,22.80
2018-12-21T19:48:16.867Z,22.37
2018-12-21T19:52:25.242Z,20.67
2018-12-21T19:56:43.954Z,23.90
2018-12-21T20:00:52.291Z,15.77
2018-12-21T20:05:00.646Z,19.03
2018-12-21T20:09:08.908Z,16.23
2018-12-21T20:13:17.189Z,22.10
2018-12-21T20:17:25.514Z,19.00
2018-12-21T20:21:33.881Z,27.83
2018-12-21T20:25:42.209Z,27.00
2018-12-21T20:29:50.229Z,16.30
2018-12-21T20:33:58.539Z,21.00
2018-12-21T20:38:06.811Z,24.17
2018-12-21T20:42:15.359Z,24.83
2018-12-21T20:46:23.701Z,20.97
2018-12-21T20:50:31.758Z,19.20
2018-12-21T20:54:40.009Z,18.13
2018-12-21T20:58:52.191Z,22.70
2018-12-21T21:03:00.529Z,22.70
2018-12-21T21:07:08.806Z,15.77
2018-12-21T21:11:23.992Z,26.33
2018-12-21T21:15:25.206Z,24.10
2018-12-21T21:19:36.846Z,27.90
2018-12-21T21:23:45.141Z,18.20
2018-12-21T21:27:53.422Z,22.90
2018-12-21T21:32:01.768Z,24.77
2018-12-21T21:36:10.043Z,23.77
2018-12-21T21:40:19.221Z,29.00
2018-12-21T21:44:27.591Z,22.47
2018-12-21T21:48:35.825Z,18.47
2018-12-21T21:52:44.069Z,35.93
2018-12-21T21:56:52.358Z,28.10
2018-12-21T22:01:00.619Z,23.70
2018-12-21T22:05:08.912Z,26.07
2018-12-21T22:09:17.213Z,18.83
2018-12-21T22:13:25.547Z,35.67
2018-12-21T22:17:33.938Z,24.75
2018-12-21T22:21:42.199Z,24.83
2018-12-21T22:25:53.456Z,35.63
2018-12-21T22:29:58.786Z,28.03
2018-12-21T22:34:07.054Z,31.60
2018-12-21T22:38:15.326Z,31.87
2018-12-21T22:42:23.602Z,22.47
2018-12-21T22:46:31.908Z,29.73
2018-12-21T22:50:40.223Z,28.63
2018-12-21T22:54:48.452Z,31.03
2018-12-21T22:58:56.737Z,32.17
2018-12-21T23:03:04.990Z,31.90
2018-12-21T23:07:17.598Z,39.13
2018-12-21T23:11:25.877Z,20.80
2018-12-21T23:15:34.175Z,26.33
2018-12-21T23:19:42.495Z,35.07
2018-12-21T23:23:50.781Z,25.17
2018-12-21T23:28:05.048Z,30.67
2018-12-21T23:32:07.359Z,31.20
2018-12-21T23:36:15.717Z,36.43
2018-12-21T23:40:23.991Z,23.50
2018-12-21T23:44:32.265Z,25.50
2018-12-21T23:48:40.588Z,30.10
2018-12-21T23:52:48.858Z,34.63
2018-12-21T23:56:57.121Z,29.43
